Time;durP1;ratioP1;P1;durP2;ratioP2;P2;SDS_P1;SDS_P2;PMS_P1;PMS_P2;Temp;Humidity;BMP_temperature;BMP_pressure;BME280_temperature;BME280_humidity;BME280_pressure;Samples;Min_cycle;Max_cycle;Signal;HPM_P1;HPM_P2
2022/05/16 00:01:59;;;;;;;2.60;1.67;;;19.30;75.20;;;;;;5071758;28;20480;-81
2022/05/16 00:04:24;;;;;;;3.03;2.00;;;19.30;76.50;;;;;;5054278;28;20452;-81
2022/05/16 00:06:50;;;;;;;7.70;2.17;;;19.30;75.40;;;;;;5053786;28;21325;-81
2022/05/16 00:09:16;;;;;;;3.10;2.00;;;19.10;77.50;;;;;;5071797;28;20301;-80
2022/05/16 00:11:41;;;;;;;3.07;1.97;;;19.10;78.90;;;;;;5053206;28;20333;-81
2022/05/16 00:14:07;;;;;;;7.20;1.93;;;19.00;81.00;;;;;;5053077;28;20673;-81
2022/05/16 00:16:33;;;;;;;3.13;1.80;;;19.00;82.00;;;;;;5071492;28;20220;-81
2022/05/16 00:18:59;;;;;;;5.00;2.03;;;19.10;81.40;;;;;;5053572;28;20479;-81
2022/05/16 00:21:25;;;;;;;3.00;2.30;;;19.00;82.60;;;;;;5071292;28;20203;-80
2022/05/16 00:23:50;;;;;;;2.30;1.87;;;18.90;85.00;;;;;;5053061;28;20786;-80
2022/05/16 00:26:16;;;;;;;4.23;1.70;;;18.90;84.70;;;;;;5053364;28;20215;-81
2022/05/16 00:28:42;;;;;;;6.30;2.03;;;18.90;84.30;;;;;;5071217;28;20322;-81
2022/05/16 00:31:08;;;;;;;3.60;2.00;;;19.00;84.50;;;;;;5070779;28;20194;-81
2022/05/16 00:33:33;;;;;;;4.30;1.70;;;19.00;86.00;;;;;;5070728;28;20179;-81
2022/05/16 00:35:59;;;;;;;2.20;1.60;;;19.00;85.90;;;;;;5070591;28;20696;-80
2022/05/16 00:38:25;;;;;;;4.60;2.10;;;18.90;86.70;;;;;;5052470;28;20685;-81
2022/05/16 00:40:52;;;;;;;5.53;2.20;;;18.90;87.90;;;;;;5070692;28;20269;-81
2022/05/16 00:43:40;;;;;;;3.30;2.17;;;18.90;88.00;;;;;;5070428;28;20465;-81
2022/05/16 00:46:06;;;;;;;2.30;1.70;;;18.90;88.10;;;;;;5070520;28;20405;-81
2022/05/16 00:48:31;;;;;;;2.13;1.60;;;18.80;90.70;;;;;;5052416;28;20433;-81
2022/05/16 00:50:58;;;;;;;3.90;1.80;;;18.70;91.60;;;;;;5052379;28;20194;-81
2022/05/16 00:53:23;;;;;;;4.00;2.00;;;18.60;92.30;;;;;;5051999;28;20272;-81
2022/05/16 00:55:49;;;;;;;6.53;2.00;;;18.50;93.20;;;;;;5035374;28;20812;-81
2022/05/16 00:58:17;;;;;;;3.53;1.80;;;18.40;93.10;;;;;;5070060;28;20186;-81
2022/05/16 01:00:44;;;;;;;4.67;2.90;;;18.30;93.80;;;;;;5070388;28;20463;-81
2022/05/16 01:05:57;;;;;;;4.03;2.23;;;18.20;94.40;;;;;;5070077;28;20437;-80
2022/05/16 01:08:25;;;;;;;2.60;1.87;;;17.90;95.40;;;;;;5052039;28;20800;-81
2022/05/16 01:10:56;;;;;;;2.00;1.83;;;17.80;96.00;;;;;;5070243;28;20649;-81
2022/05/16 01:13:27;;;;;;;2.97;1.63;;;17.80;96.60;;;;;;5051613;28;20591;-81
2022/05/16 01:15:53;;;;;;;2.00;1.87;;;17.70;97.80;;;;;;5069828;28;21118;-81
2022/05/16 01:18:21;;;;;;;11.33;1.90;;;17.60;98.30;;;;;;5069935;28;20421;-81
2022/05/16 01:21:25;;;;;;;3.43;1.80;;;17.60;97.70;;;;;;5070003;28;20882;-81
2022/05/16 01:24:02;;;;;;;3.53;2.00;;;17.40;98.10;;;;;;5051771;28;21277;-81
2022/05/16 01:26:30;;;;;;;2.13;1.80;;;17.60;95.40;;;;;;5051590;28;20437;-81
2022/05/16 01:28:56;;;;;;;3.63;1.73;;;17.90;94.00;;;;;;5051490;28;20957;-81
2022/05/16 01:31:22;;;;;;;4.73;1.90;;;18.10;93.60;;;;;;5069419;28;20501;-81
2022/05/16 01:33:48;;;;;;;1.73;1.63;;;18.30;93.30;;;;;;5069565;28;20453;-81
2022/05/16 01:36:14;;;;;;;4.07;1.63;;;18.40;92.80;;;;;;5069308;28;20447;-81
2022/05/16 01:38:40;;;;;;;2.93;1.93;;;18.50;92.60;;;;;;5051191;28;20798;-80
2022/05/16 01:41:15;;;;;;;2.57;1.70;;;18.60;92.50;;;;;;5051434;28;20557;-81
2022/05/16 01:43:47;;;;;;;3.30;1.87;;;18.80;92.00;;;;;;5069529;28;20787;-80
2022/05/16 01:46:27;;;;;;;3.67;1.80;;;19.00;92.00;;;;;;5052398;28;20423;-81
2022/05/16 01:48:54;;;;;;;2.60;1.50;;;19.20;91.70;;;;;;5051341;28;20412;-81
2022/05/16 01:51:21;;;;;;;2.87;1.90;;;19.40;91.40;;;;;;5034785;28;20521;-81
2022/05/16 01:53:47;;;;;;;3.97;1.67;;;19.40;91.20;;;;;;5051210;28;20419;-81
2022/05/16 01:56:14;;;;;;;3.43;1.70;;;19.40;91.20;;;;;;5050961;28;20908;-81
2022/05/16 01:58:42;;;;;;;3.70;1.53;;;19.50;91.30;;;;;;5069542;28;20459;-81
2022/05/16 02:01:09;;;;;;;7.60;2.10;;;19.40;91.40;;;;;;5050728;28;20429;-81
2022/05/16 02:03:39;;;;;;;3.87;1.90;;;19.50;91.30;;;;;;5034256;28;20494;-81
2022/05/16 02:06:05;;;;;;;1.80;1.53;;;19.70;91.20;;;;;;5069000;28;20419;-81
2022/05/16 02:08:31;;;;;;;3.27;1.53;;;19.70;91.50;;;;;;5050738;28;20945;-81
2022/05/16 02:10:56;;;;;;;3.27;1.57;;;19.60;91.60;;;;;;5038094;28;20425;-81
2022/05/16 02:13:22;;;;;;;1.53;1.43;;;19.60;91.70;;;;;;5072726;28;20223;-81
2022/05/16 02:15:47;;;;;;;2.30;1.73;;;19.70;91.90;;;;;;5054764;28;20177;-81
2022/05/16 02:18:14;;;;;;;1.67;1.57;;;19.70;91.90;;;;;;5072736;28;20179;-80
2022/05/16 02:20:41;;;;;;;8.90;2.00;;;19.70;91.90;;;;;;5073342;28;20182;-81
2022/05/16 02:25:53;;;;;;;2.23;1.80;;;19.90;91.70;;;;;;5098781;28;20420;-82
2022/05/16 02:28:20;;;;;;;4.23;1.80;;;19.90;92.10;;;;;;5081528;28;20425;-82
2022/05/16 02:30:46;;;;;;;5.43;2.00;;;19.90;92.20;;;;;;5099127;28;20408;-82
2022/05/16 02:33:14;;;;;;;1.47;1.30;;;19.90;91.90;;;;;;5069636;28;20663;-81
2022/05/16 02:35:40;;;;;;;1.87;1.73;;;19.90;92.10;;;;;;5026042;28;20421;-81
2022/05/16 02:38:08;;;;;;;5.47;1.90;;;19.90;92.40;;;;;;5058452;28;20933;-81
2022/05/16 02:40:35;;;;;;;3.23;2.00;;;19.90;92.30;;;;;;5057415;28;21005;-81
2022/05/16 02:43:01;;;;;;;2.33;2.13;;;19.90;92.30;;;;;;5074734;28;20465;-80
2022/05/16 02:45:28;;;;;;;3.30;2.13;;;19.90;92.70;;;;;;5055288;28;20428;-81
2022/05/16 02:47:55;;;;;;;2.70;1.43;;;19.80;92.60;;;;;;5073147;28;20410;-81
2022/05/16 02:50:23;;;;;;;2.80;2.20;;;19.80;93.00;;;;;;5073179;28;20508;-80
2022/05/16 02:52:50;;;;;;;2.80;1.87;;;19.80;93.20;;;;;;5073385;28;20480;-81
2022/05/16 02:55:16;;;;;;;3.07;1.57;;;19.80;93.40;;;;;;5073639;28;20490;-81
2022/05/16 02:57:41;;;;;;;3.00;2.20;;;19.80;93.20;;;;;;5074981;28;20953;-80
2022/05/16 03:00:08;;;;;;;4.00;2.57;;;19.80;93.10;;;;;;5073234;28;20416;-81
2022/05/16 03:02:35;;;;;;;3.37;1.97;;;19.80;93.60;;;;;;5056051;28;20272;-80
2022/05/16 03:05:00;;;;;;;2.27;2.07;;;19.80;93.60;;;;;;5073599;28;20421;-81
2022/05/16 03:07:26;;;;;;;2.07;1.60;;;19.80;93.90;;;;;;5073719;28;20435;-81
2022/05/16 03:09:51;;;;;;;2.30;1.70;;;19.70;94.10;;;;;;5072597;28;20199;-81
2022/05/16 03:12:17;;;;;;;3.93;2.63;;;19.70;94.60;;;;;;5022073;28;20252;-81
2022/05/16 03:14:43;;;;;;;3.40;2.20;;;19.70;94.10;;;;;;5073441;28;20186;-81
2022/05/16 03:17:08;;;;;;;3.50;2.10;;;19.70;94.10;;;;;;5038776;28;20229;-81
2022/05/16 03:19:35;;;;;;;2.67;2.47;;;19.70;94.50;;;;;;5072917;28;20189;-81
2022/05/16 03:22:03;;;;;;;2.73;2.23;;;19.60;95.00;;;;;;5038690;28;20223;-81
2022/05/16 03:24:28;;;;;;;3.60;2.00;;;19.50;95.30;;;;;;5055650;28;20450;-80
2022/05/16 03:26:54;;;;;;;4.07;2.03;;;19.50;95.60;;;;;;5072997;28;20424;-80
2022/05/16 03:29:19;;;;;;;11.43;2.67;;;19.40;95.90;;;;;;5054408;28;20218;-80
2022/05/16 03:31:45;;;;;;;2.77;2.53;;;19.40;96.20;;;;;;5038077;28;20229;-81
2022/05/16 03:34:12;;;;;;;4.23;2.53;;;19.40;96.50;;;;;;5054356;28;20229;-81
2022/05/16 03:36:38;;;;;;;2.73;2.23;;;19.30;96.70;;;;;;5072799;28;20182;-81
2022/05/16 03:41:50;;;;;;;6.30;2.50;;;19.30;97.00;;;;;;5073006;28;20442;-81
2022/05/16 03:44:15;;;;;;;8.83;2.03;;;19.40;96.70;;;;;;5054163;28;20532;-81
2022/05/16 03:46:41;;;;;;;2.93;2.30;;;19.40;96.90;;;;;;5072742;28;20518;-80
2022/05/16 03:49:07;;;;;;;5.13;1.93;;;19.40;97.20;;;;;;5055425;28;20272;-81
2022/05/16 03:51:33;;;;;;;2.17;1.97;;;19.30;97.40;;;;;;5073212;28;20246;-81
2022/05/16 03:53:59;;;;;;;3.10;1.90;;;19.40;97.40;;;;;;5073153;28;20410;-81
2022/05/16 03:56:28;;;;;;;6.30;2.70;;;19.40;97.90;;;;;;5054578;28;20510;-81
2022/05/16 03:58:54;;;;;;;4.40;2.30;;;19.40;98.00;;;;;;5072810;28;20609;-81
2022/05/16 04:01:20;;;;;;;4.03;2.60;;;19.30;98.30;;;;;;5054360;28;20529;-81
2022/05/16 04:03:46;;;;;;;2.77;2.30;;;19.30;98.50;;;;;;5037685;28;20531;-81
2022/05/16 04:06:13;;;;;;;5.40;2.60;;;19.30;98.70;;;;;;5072224;28;20484;-81
2022/05/16 04:08:40;;;;;;;4.23;2.30;;;19.40;98.70;;;;;;5071978;28;20862;-81
2022/05/16 04:11:06;;;;;;;4.60;2.30;;;19.40;98.50;;;;;;5072094;28;20416;-81
2022/05/16 04:13:32;;;;;;;4.50;1.97;;;19.40;98.70;;;;;;5053680;28;20489;-81
2022/05/16 04:15:59;;;;;;;4.30;2.20;;;19.40;98.60;;;;;;5053690;28;20930;-81
2022/05/16 04:18:24;;;;;;;4.57;2.40;;;19.40;99.90;;;;;;5071765;28;20422;-81
2022/05/16 04:20:50;;;;;;;2.50;2.10;;;19.40;99.00;;;;;;5071512;28;21289;-81
2022/05/16 04:23:16;;;;;;;3.30;2.40;;;19.40;99.10;;;;;;5036779;28;20758;-81
2022/05/16 04:25:41;;;;;;;3.73;2.47;;;19.50;99.90;;;;;;5036505;28;20728;-82
2022/05/16 04:28:09;;;;;;;4.60;2.50;;;19.50;99.90;;;;;;5071146;28;20197;-81
2022/05/16 04:30:37;;;;;;;4.23;2.10;;;19.40;99.90;;;;;;5071139;28;20189;-81
2022/05/16 04:33:03;;;;;;;3.20;2.90;;;19.50;99.90;;;;;;5051939;28;20990;-81
2022/05/16 04:35:28;;;;;;;4.00;2.90;;;19.50;99.90;;;;;;5053217;28;20421;-81
2022/05/16 04:37:54;;;;;;;2.60;2.33;;;19.50;99.90;;;;;;5070925;28;20453;-81
2022/05/16 04:40:20;;;;;;;4.43;2.23;;;19.60;99.60;;;;;;5070663;28;20193;-81
2022/05/16 04:42:46;;;;;;;11.93;3.40;;;19.60;99.60;;;;;;5052721;28;20265;-81
2022/05/16 04:45:15;;;;;;;2.60;2.40;;;19.60;99.20;;;;;;5070514;28;20421;-81
2022/05/16 04:47:43;;;;;;;5.23;2.93;;;19.60;99.70;;;;;;5070633;28;20422;-81
2022/05/16 04:50:10;;;;;;;7.60;2.50;;;19.40;99.90;;;;;;5070393;28;20482;-81
2022/05/16 04:52:36;;;;;;;5.73;2.97;;;19.40;99.90;;;;;;5053546;28;20902;-81
2022/05/16 04:55:02;;;;;;;3.83;2.50;;;19.40;99.90;;;;;;5053918;28;20421;-81
2022/05/16 04:57:28;;;;;;;2.60;2.37;;;19.40;99.90;;;;;;5071684;28;20190;-81
2022/05/16 04:59:53;;;;;;;6.70;2.70;;;19.50;99.90;;;;;;5070958;28;20784;-81
2022/05/16 05:02:19;;;;;;;3.93;2.97;;;19.50;99.90;;;;;;5052970;28;20465;-80
2022/05/16 05:04:45;;;;;;;3.77;3.10;;;19.50;99.90;;;;;;5053060;28;20285;-81
2022/05/16 05:07:12;;;;;;;2.80;2.10;;;19.50;99.90;;;;;;5071038;28;20242;-81
2022/05/16 05:15:13;;;;;;;6.77;3.13;;;19.60;99.90;;;;;;5071920;28;20928;-81
2022/05/16 05:17:40;;;;;;;5.93;2.73;;;19.70;99.90;;;;;;5052975;28;20445;-81
2022/05/16 05:20:07;;;;;;;2.83;2.33;;;19.80;99.90;;;;;;5071178;28;20409;-81
2022/05/16 05:22:33;;;;;;;4.90;2.63;;;19.80;99.90;;;;;;5052925;28;20439;-81
2022/05/16 05:24:59;;;;;;;3.73;2.07;;;19.80;99.90;;;;;;5036565;28;20429;-81
2022/05/16 05:27:24;;;;;;;3.80;2.77;;;19.90;99.90;;;;;;5053348;28;20216;-80
2022/05/16 05:29:52;;;;;;;3.00;2.80;;;20.00;99.90;;;;;;5036229;28;20196;-81
2022/05/16 05:32:18;;;;;;;6.30;3.03;;;20.10;99.90;;;;;;5070626;28;20234;-81
2022/05/16 05:34:43;;;;;;;8.07;2.70;;;20.20;99.90;;;;;;5052890;28;20452;-81
2022/05/16 05:37:09;;;;;;;3.17;2.10;;;20.20;99.90;;;;;;5019415;28;20181;-81
2022/05/16 05:39:35;;;;;;;3.43;2.97;;;20.20;99.90;;;;;;5071124;28;20182;-81
2022/05/16 05:42:01;;;;;;;8.17;2.90;;;20.30;99.50;;;;;;5070423;28;20210;-81
2022/05/16 05:44:27;;;;;;;5.03;2.60;;;20.40;99.90;;;;;;5070153;28;20445;-81
2022/05/16 05:46:53;;;;;;;4.40;2.40;;;20.60;99.90;;;;;;5051988;28;20512;-80
2022/05/16 05:49:19;;;;;;;2.70;2.50;;;20.70;99.90;;;;;;5051828;28;20274;-81
2022/05/16 05:51:45;;;;;;;4.43;2.60;;;20.60;99.90;;;;;;5051643;28;20221;-81
2022/05/16 05:54:11;;;;;;;4.47;2.80;;;20.60;99.90;;;;;;5052119;28;20997;-81
2022/05/16 05:56:37;;;;;;;3.57;2.20;;;20.60;99.90;;;;;;5069937;28;20421;-81
2022/05/16 05:59:03;;;;;;;9.80;2.80;;;20.50;99.90;;;;;;5051818;28;20190;-81
2022/05/16 06:01:29;;;;;;;6.20;2.63;;;20.50;99.90;;;;;;5069920;28;20521;-81
2022/05/16 06:03:55;;;;;;;3.00;2.67;;;20.40;99.90;;;;;;5070230;28;20417;-81
2022/05/16 06:06:20;;;;;;;4.13;2.93;;;20.40;99.90;;;;;;5035908;28;20425;-81
2022/05/16 06:08:46;;;;;;;4.70;2.83;;;20.40;99.90;;;;;;5070953;28;20672;-80
2022/05/16 06:11:12;;;;;;;3.70;2.87;;;20.20;99.90;;;;;;5036761;28;20566;-79
2022/05/16 06:13:38;;;;;;;5.60;3.03;;;20.10;99.90;;;;;;5072056;28;20257;-80
2022/05/16 06:16:06;;;;;;;3.60;2.30;;;20.00;99.90;;;;;;5071441;28;20186;-80
2022/05/16 06:18:32;;;;;;;9.70;2.93;;;19.90;99.90;;;;;;5071663;28;20418;-80
2022/05/16 06:20:57;;;;;;;2.77;2.47;;;20.00;99.90;;;;;;5053249;28;20422;-80
2022/05/16 06:23:23;;;;;;;4.80;2.50;;;20.00;99.90;;;;;;5052929;28;20218;-80
2022/05/16 06:25:52;;;;;;;2.13;1.97;;;19.90;99.90;;;;;;5070731;28;20183;-81
2022/05/16 06:28:21;;;;;;;2.17;1.83;;;19.90;99.90;;;;;;5052799;28;20183;-80
2022/05/16 06:30:48;;;;;;;2.47;2.00;;;19.90;99.90;;;;;;5070381;28;20429;-79
2022/05/16 06:33:15;;;;;;;4.87;2.40;;;19.70;99.90;;;;;;5052309;28;20473;-79
2022/05/16 06:35:42;;;;;;;5.57;2.40;;;19.40;99.90;;;;;;5070127;28;20462;-79
2022/05/16 06:38:14;;;;;;;6.47;2.70;;;19.30;99.90;;;;;;5035437;28;20811;-78
2022/05/16 06:40:41;;;;;;;3.60;2.20;;;19.30;99.90;;;;;;5070234;28;21094;-78
2022/05/16 06:43:07;;;;;;;5.10;2.53;;;19.30;99.90;;;;;;5070047;28;20464;-78
2022/05/16 06:45:33;;;;;;;2.50;1.87;;;19.30;99.90;;;;;;5070170;28;20463;-79
2022/05/16 06:48:00;;;;;;;7.13;3.00;;;19.30;99.90;;;;;;5052210;28;20439;-79
2022/05/16 06:50:25;;;;;;;3.90;3.00;;;19.30;99.90;;;;;;5069897;28;20179;-78
2022/05/16 06:52:51;;;;;;;2.70;2.50;;;19.40;99.90;;;;;;5070023;28;20479;-79
2022/05/16 06:55:17;;;;;;;5.50;2.90;;;19.40;99.90;;;;;;5071077;28;20200;-79
2022/05/16 06:57:43;;;;;;;10.23;2.40;;;19.40;99.90;;;;;;5074082;28;20432;-78
2022/05/16 07:00:11;;;;;;;6.93;2.67;;;19.40;99.90;;;;;;5055642;28;20266;-79
2022/05/16 07:02:38;;;;;;;2.77;2.57;;;19.50;99.90;;;;;;5073178;28;20668;-79
2022/05/16 07:05:04;;;;;;;4.37;2.00;;;19.40;99.90;;;;;;5055265;28;20429;-79
2022/05/16 07:07:30;;;;;;;4.10;2.87;;;19.40;99.90;;;;;;5072294;28;20418;-79
2022/05/16 07:09:56;;;;;;;2.80;2.60;;;19.40;99.90;;;;;;5054816;28;20807;-79
2022/05/16 07:12:22;;;;;;;3.53;3.00;;;19.50;99.90;;;;;;5054535;28;20506;-79
2022/05/16 07:14:48;;;;;;;3.50;2.40;;;19.50;99.90;;;;;;5072228;28;20182;-79
2022/05/16 07:17:14;;;;;;;3.10;2.60;;;19.50;99.90;;;;;;5054532;28;20183;-78
2022/05/16 07:19:40;;;;;;;2.60;2.40;;;19.60;99.90;;;;;;5072016;28;21222;-78
2022/05/16 07:22:10;;;;;;;10.03;3.03;;;19.70;99.90;;;;;;5054309;28;21297;-79
2022/05/16 07:24:36;;;;;;;5.93;2.70;;;19.90;99.90;;;;;;5055882;28;20436;-79
2022/05/16 07:29:46;;;;;;;5.80;2.97;;;20.50;99.90;;;;;;5074254;28;20256;-79
2022/05/16 07:32:12;;;;;;;3.50;3.20;;;20.80;99.90;;;;;;5039503;28;20461;-79
2022/05/16 07:34:39;;;;;;;7.60;3.33;;;21.00;99.90;;;;;;5055558;28;20591;-79
2022/05/16 07:37:05;;;;;;;3.03;2.70;;;21.20;99.90;;;;;;5073767;28;20881;-79
2022/05/16 07:39:30;;;;;;;4.40;3.17;;;21.20;99.90;;;;;;5038924;28;20413;-79
2022/05/16 07:41:56;;;;;;;25.07;4.80;;;21.20;99.90;;;;;;5073613;28;20829;-79
2022/05/16 07:44:22;;;;;;;6.43;2.70;;;21.20;99.90;;;;;;5055840;28;20195;-79
2022/05/16 07:46:47;;;;;;;5.67;3.00;;;21.30;99.90;;;;;;5055746;28;20711;-79
2022/05/16 07:49:13;;;;;;;5.23;2.80;;;21.40;99.90;;;;;;5055562;28;20183;-79
2022/05/16 07:51:41;;;;;;;6.80;3.23;;;21.60;99.90;;;;;;5073089;28;20225;-79
2022/05/16 07:54:08;;;;;;;4.07;3.00;;;21.80;99.90;;;;;;5072906;28;20216;-79
2022/05/16 07:56:34;;;;;;;9.43;2.80;;;22.00;99.90;;;;;;5054926;28;20806;-79
2022/05/16 07:59:00;;;;;;;2.90;2.60;;;22.00;99.90;;;;;;5055514;28;20903;-80
2022/05/16 08:01:27;;;;;;;5.30;2.60;;;22.10;99.90;;;;;;5057439;28;20839;-80
2022/05/16 08:03:54;;;;;;;7.50;2.50;;;22.20;99.90;;;;;;5074586;28;20414;-79
2022/05/16 08:06:20;;;;;;;3.03;2.50;;;22.40;99.90;;;;;;5039040;28;20422;-79
2022/05/16 08:11:30;;;;;;;5.57;2.97;;;22.50;99.90;;;;;;5071706;28;20518;-79
2022/05/16 08:13:56;;;;;;;2.80;2.50;;;22.50;99.90;;;;;;5054241;28;20471;-79
2022/05/16 08:16:22;;;;;;;2.90;2.60;;;22.60;99.90;;;;;;5053654;28;20228;-79
2022/05/16 08:18:47;;;;;;;5.70;2.70;;;22.70;99.90;;;;;;5071581;28;20464;-79
2022/05/16 08:21:13;;;;;;;2.77;2.30;;;22.50;99.90;;;;;;5053063;28;20218;-79
2022/05/16 08:23:39;;;;;;;4.23;2.50;;;22.40;99.90;;;;;;5071291;28;20189;-79
2022/05/16 08:26:05;;;;;;;10.90;3.30;;;22.40;99.90;;;;;;5071515;28;20247;-79
2022/05/16 08:28:32;;;;;;;6.33;2.90;;;22.30;99.90;;;;;;5053279;28;20856;-80
2022/05/16 08:30:58;;;;;;;4.50;2.97;;;22.30;99.90;;;;;;5053066;28;20669;-79
2022/05/16 08:33:24;;;;;;;3.30;3.00;;;22.00;99.90;;;;;;5070945;28;20472;-79
2022/05/16 08:41:27;;;;;;;2.77;2.57;;;22.50;99.90;;;;;;5071267;28;20410;-80
2022/05/16 08:43:58;;;;;;;4.83;2.90;;;22.80;99.90;;;;;;5053671;28;20450;-80
2022/05/16 08:46:59;;;;;;;3.10;2.90;;;22.20;99.90;;;;;;5071558;28;20406;-80
2022/05/16 08:49:49;;;;;;;4.70;3.40;;;22.20;99.90;;;;;;5052811;28;20422;-80
2022/05/16 08:52:23;;;;;;;7.23;3.20;;;22.30;99.90;;;;;;5071361;28;21153;-80
2022/05/16 08:54:56;;;;;;;3.40;2.20;;;22.50;99.90;;;;;;5052935;28;20430;-80
2022/05/16 08:57:40;;;;;;;6.67;2.90;;;22.50;99.90;;;;;;5072482;28;20418;-80
2022/05/16 09:00:11;;;;;;;5.80;2.73;;;22.50;99.90;;;;;;5071989;28;20419;-81
2022/05/16 09:02:41;;;;;;;2.93;2.60;;;22.20;99.90;;;;;;5070634;28;20816;-80
2022/05/16 09:05:18;;;;;;;3.77;2.47;;;22.30;99.90;;;;;;5052862;28;20427;-79
2022/05/16 09:07:51;;;;;;;5.03;2.70;;;22.30;99.90;;;;;;5071184;28;20400;-80
2022/05/16 09:10:21;;;;;;;3.93;2.43;;;22.30;99.90;;;;;;5053132;28;20429;-80
2022/05/16 09:13:07;;;;;;;4.33;3.17;;;22.30;99.90;;;;;;5070779;28;20802;-80
2022/05/16 09:15:59;;;;;;;3.83;2.23;;;22.10;99.90;;;;;;5052358;28;20414;-80
2022/05/16 09:18:50;;;;;;;5.43;2.63;;;22.00;99.90;;;;;;5069584;28;20504;-80
2022/05/16 09:21:21;;;;;;;5.27;2.33;;;22.30;99.90;;;;;;5070342;28;20411;-80
2022/05/16 09:23:50;;;;;;;4.77;2.63;;;22.10;99.90;;;;;;5070347;28;20406;-79
2022/05/16 09:27:06;;;;;;;2.80;2.60;;;22.00;99.90;;;;;;5070392;28;20416;-79
2022/05/16 09:29:39;;;;;;;3.27;2.80;;;22.10;99.90;;;;;;5027401;28;20470;-80
2022/05/16 09:32:11;;;;;;;7.40;2.50;;;22.40;99.90;;;;;;5069849;28;20969;-80
2022/05/16 09:34:37;;;;;;;3.70;2.30;;;22.60;99.90;;;;;;5069906;28;20914;-80
2022/05/16 09:37:03;;;;;;;6.00;3.27;;;22.70;99.90;;;;;;5034895;28;20449;-80
2022/05/16 09:39:31;;;;;;;6.10;3.00;;;22.90;99.90;;;;;;5051592;28;20599;-80
2022/05/16 09:42:15;;;;;;;5.30;2.83;;;22.90;99.90;;;;;;5069312;28;20442;-80
2022/05/16 09:44:59;;;;;;;4.17;2.90;;;22.90;99.90;;;;;;5069394;28;20549;-80
2022/05/16 09:47:28;;;;;;;5.63;3.07;;;23.30;99.90;;;;;;5051100;28;20477;-80
2022/05/16 09:50:03;;;;;;;3.20;2.60;;;23.00;99.90;;;;;;5050973;28;20422;-80
2022/05/16 09:52:36;;;;;;;5.80;3.20;;;23.20;99.90;;;;;;5051021;28;20472;-80
2022/05/16 09:55:23;;;;;;;2.63;2.43;;;23.20;99.90;;;;;;5069540;28;20438;-80
2022/05/16 09:57:54;;;;;;;5.53;2.73;;;23.40;99.90;;;;;;5051184;28;20474;-80
2022/05/16 10:00:42;;;;;;;4.47;2.90;;;23.50;99.90;;;;;;5071182;28;20971;-79
2022/05/16 10:03:22;;;;;;;3.47;3.10;;;23.70;99.90;;;;;;5071143;28;20805;-80
2022/05/16 10:05:51;;;;;;;5.50;2.93;;;23.80;99.90;;;;;;5070630;28;20468;-80
2022/05/16 10:08:29;;;;;;;8.53;3.03;;;23.90;99.90;;;;;;5053137;28;20947;-80
2022/05/16 10:10:56;;;;;;;5.93;2.93;;;24.00;99.90;;;;;;5052823;28;20427;-80
2022/05/16 10:13:23;;;;;;;4.37;2.67;;;23.90;99.90;;;;;;5071072;28;20597;-80
2022/05/16 10:15:53;;;;;;;5.37;2.87;;;23.80;99.90;;;;;;5071204;28;20407;-80
2022/05/16 10:18:22;;;;;;;10.00;3.73;;;23.80;99.90;;;;;;5070840;28;20420;-80
2022/05/16 10:20:56;;;;;;;4.70;3.20;;;23.80;99.90;;;;;;5053950;28;20975;-80
2022/05/16 10:23:26;;;;;;;5.50;3.10;;;23.40;99.90;;;;;;5052852;28;20458;-79
2022/05/16 10:25:55;;;;;;;3.70;3.40;;;23.30;99.90;;;;;;5052988;28;20543;-80
2022/05/16 10:28:28;;;;;;;6.13;3.83;;;23.10;99.90;;;;;;5052836;28;20428;-80
2022/05/16 10:33:41;;;;;;;3.70;3.30;;;22.40;99.90;;;;;;5074943;28;20478;-80
2022/05/16 10:36:23;;;;;;;7.63;3.90;;;22.20;99.90;;;;;;5075133;28;20415;-80
2022/05/16 10:39:01;;;;;;;4.23;3.20;;;21.90;99.90;;;;;;5057070;28;20421;-79
2022/05/16 10:41:43;;;;;;;5.33;3.30;;;21.60;99.90;;;;;;5074697;28;20421;-80
2022/05/16 10:44:35;;;;;;;4.77;3.17;;;21.30;99.90;;;;;;5075071;28;20461;-80
2022/05/16 10:47:34;;;;;;;4.20;2.80;;;21.10;99.90;;;;;;5075672;28;20501;-79
2022/05/16 10:50:09;;;;;;;7.50;3.30;;;21.00;99.90;;;;;;5075525;28;20490;-80
2022/05/16 10:52:49;;;;;;;6.73;4.00;;;21.00;99.90;;;;;;5074476;28;20460;-80
2022/05/16 10:55:15;;;;;;;3.80;2.97;;;20.90;99.90;;;;;;5056194;28;20441;-80
2022/05/16 10:57:56;;;;;;;3.57;3.00;;;21.10;99.90;;;;;;5074403;28;20448;-79
2022/05/16 11:00:47;;;;;;;6.60;3.37;;;21.20;99.90;;;;;;5074332;28;20484;-80
2022/05/16 11:03:34;;;;;;;5.40;4.23;;;21.30;99.90;;;;;;5038592;28;20452;-80
2022/05/16 11:06:35;;;;;;;8.63;4.30;;;21.20;99.90;;;;;;5074364;28;20417;-80
2022/05/16 11:09:18;;;;;;;8.23;4.20;;;21.30;99.90;;;;;;5020448;28;20437;-80
2022/05/16 11:11:53;;;;;;;9.77;3.80;;;21.20;99.90;;;;;;5074028;28;20465;-79
2022/05/16 11:14:29;;;;;;;9.40;4.63;;;21.00;99.90;;;;;;5072722;28;20400;-80
2022/05/16 11:17:18;;;;;;;4.37;3.97;;;20.80;99.90;;;;;;5054767;28;20494;-80
2022/05/16 11:20:05;;;;;;;7.83;4.07;;;20.80;99.90;;;;;;5055023;28;20489;-80
2022/05/16 11:22:36;;;;;;;4.10;3.73;;;20.80;99.90;;;;;;5056374;28;20972;-80
2022/05/16 11:25:25;;;;;;;6.90;3.97;;;20.70;99.90;;;;;;5072409;28;20509;-81
2022/05/16 11:28:03;;;;;;;5.83;4.17;;;20.70;99.90;;;;;;5054295;28;21286;-80
2022/05/16 11:30:34;;;;;;;11.30;5.20;;;20.50;99.90;;;;;;5072285;28;20496;-80
2022/05/16 11:33:24;;;;;;;15.13;5.20;;;20.00;99.90;;;;;;5054296;28;20548;-80
2022/05/16 11:35:55;;;;;;;17.30;6.00;;;19.10;99.90;;;;;;5054701;28;20429;-80
2022/05/16 11:38:37;;;;;;;16.60;6.43;;;18.30;99.90;;;;;;5073180;28;21176;-80
2022/05/16 11:41:29;;;;;;;13.07;6.13;;;18.00;99.90;;;;;;5073883;28;20856;-80
2022/05/16 11:44:13;;;;;;;10.87;5.67;;;17.80;99.90;;;;;;5054972;28;20825;-80
2022/05/16 11:46:48;;;;;;;10.03;5.83;;;17.50;99.90;;;;;;5054597;28;20451;-80
2022/05/16 11:49:32;;;;;;;14.40;5.60;;;17.40;99.90;;;;;;5072395;28;20894;-80
2022/05/16 11:52:17;;;;;;;9.07;4.73;;;17.20;99.90;;;;;;5054788;28;20573;-80
2022/05/16 11:54:51;;;;;;;14.13;5.43;;;16.80;99.90;;;;;;5072874;28;20408;-80
2022/05/16 12:03:11;;;;;;;6.17;3.90;;;16.80;99.90;;;;;;5071037;28;20436;-80
2022/05/16 12:05:39;;;;;;;5.13;3.93;;;16.90;99.90;;;;;;5070719;28;20510;-80
2022/05/16 12:08:24;;;;;;;10.80;4.40;;;16.90;99.90;;;;;;5052493;28;20527;-80
2022/05/16 12:11:04;;;;;;;7.37;4.13;;;16.90;99.90;;;;;;5052745;28;20951;-80
2022/05/16 12:13:35;;;;;;;10.73;4.77;;;16.90;99.90;;;;;;5070677;28;20470;-80
2022/05/16 12:16:25;;;;;;;13.03;5.80;;;16.80;99.90;;;;;;5070961;28;20451;-80
2022/05/16 12:19:31;;;;;;;7.60;4.70;;;16.80;99.90;;;;;;5070586;28;20832;-80
2022/05/16 12:22:22;;;;;;;9.43;4.17;;;16.90;99.90;;;;;;5052442;28;20991;-80
2022/05/16 12:24:54;;;;;;;5.33;4.43;;;16.80;99.90;;;;;;5070223;28;20424;-80
2022/05/16 12:27:29;;;;;;;9.43;4.80;;;17.00;99.90;;;;;;5070202;28;20553;-79
2022/05/16 12:30:08;;;;;;;5.53;3.87;;;17.10;99.90;;;;;;5035840;28;20432;-79
2022/05/16 12:32:34;;;;;;;13.93;4.40;;;17.00;99.90;;;;;;5070143;28;21043;-80
2022/05/16 12:35:07;;;;;;;10.63;4.93;;;16.90;99.90;;;;;;5071934;28;20420;-80
2022/05/16 12:37:35;;;;;;;6.93;3.87;;;17.10;99.90;;;;;;5053867;28;20189;-80
2022/05/16 12:40:17;;;;;;;10.93;4.17;;;17.20;99.90;;;;;;5053669;28;20435;-80
2022/05/16 12:43:02;;;;;;;9.00;4.60;;;17.40;99.90;;;;;;5071440;28;20488;-80
2022/05/16 12:45:53;;;;;;;9.23;3.60;;;17.70;99.90;;;;;;5053539;28;20428;-80
2022/05/16 12:49:18;;;;;;;13.03;4.10;;;18.00;99.90;;;;;;5071498;28;20969;-81
2022/05/16 12:52:01;;;;;;;7.50;3.60;;;18.10;99.90;;;;;;4953861;28;20450;-81
2022/05/16 12:55:00;;;;;;;8.43;4.50;;;18.80;99.90;;;;;;4969911;28;20417;-81
2022/05/16 12:57:37;;;;;;;7.00;4.27;;;19.00;99.90;;;;;;5051165;28;20505;-81
2022/05/16 13:00:17;;;;;;;6.60;4.03;;;19.40;99.90;;;;;;5071356;28;20400;-81
2022/05/16 13:02:59;;;;;;;8.50;4.10;;;19.80;99.90;;;;;;5070704;28;20429;-81
2022/05/16 13:05:37;;;;;;;11.13;3.37;;;20.10;99.90;;;;;;5052682;28;20542;-81
2022/05/16 13:08:26;;;;;;;4.90;3.10;;;20.40;99.90;;;;;;5052369;28;20720;-81
2022/05/16 13:11:13;;;;;;;11.40;3.47;;;20.40;99.90;;;;;;5070456;28;20445;-80
2022/05/16 13:13:56;;;;;;;6.03;3.83;;;20.60;99.90;;;;;;5052263;28;20475;-80
2022/05/16 13:16:29;;;;;;;10.73;3.60;;;20.70;99.90;;;;;;5070383;28;20405;-80
2022/05/16 13:18:59;;;;;;;7.80;3.40;;;20.70;99.90;;;;;;5052234;28;20479;-80
2022/05/16 13:21:54;;;;;;;4.30;3.17;;;20.60;99.90;;;;;;5070586;28;20904;-80
2022/05/16 13:24:22;;;;;;;7.20;3.87;;;20.90;99.90;;;;;;5052103;28;20414;-80
2022/05/16 13:29:39;;;;;;;8.37;3.20;;;21.70;99.90;;;;;;5071067;28;20443;-80
2022/05/16 13:32:14;;;;;;;7.90;3.87;;;21.90;99.90;;;;;;5054198;28;20508;-79
2022/05/16 13:34:44;;;;;;;5.60;2.90;;;21.70;99.90;;;;;;5070422;28;20167;-80
2022/05/16 13:37:12;;;;;;;21.63;4.63;;;21.60;99.90;;;;;;5070154;28;20937;-79
2022/05/16 13:39:43;;;;;;;8.80;3.70;;;22.00;99.90;;;;;;5070001;28;20508;-80
2022/05/16 13:42:09;;;;;;;9.13;3.47;;;22.10;99.90;;;;;;5070553;28;20457;-79